Terminal Aerodrome Forecast
Issued by NWS Hastings, NE

Home | Current Version | Previous Version | Text Only | Print | Product List | Glossary On
Versions: 1 2 3 4 5 6 7 8 9 10 11 12 13 14 15 16 17 18 19
000
FTUS45 KGID 192332
TAFEAR
TAF
KEAR 192332Z 2000/2024 18013G18KT P6SM BKN250
     FM200200 19013G18KT P6SM BKN200 WS015/20045KT
     FM200400 32017G24KT P6SM SCT250
     FM200800 32010KT P6SM FEW250
     FM202100 VRB06KT P6SM SKC=

USA.gov is the U.S. government's official web portal to all federal, state and local government web resources and services.